Etusivu
METAR-TAF:

METAR-TAF

Lentoasemat :

Kunming Changshuin kansainvälinen lentoasema

Kunming, Kiina

Leveyspiiri: 25-01N, Pituuspiiri: 102-41E, korkeus merenpinnasta: 1892 m

Tämänhetkinen sää

Tämä raportti tehtiin 33 minuuttia sitten, kello 06.00 UTC
Tuuli 6 kn idästä/kaakosta, vaihdellen idän ja kaakon välillä
Lämpötila 4°C
Kosteus 87%
Ilmanpaine 1028 hPa
Näkyvyys 10 km tai enemmän
Hajanaisia pilviä 1000 ft:n korkeudessa
Pilvistä 3300 ft:n korkeudessa

METAR: ZPPP 170600Z 11003MPS 080V140 9999 SCT010 OVC033 04/02 Q1028 NOSIG

Aika: 14:33 (06:33 UTC)

Sääennuste

Tämä raportti tehtiin 5 tuntia ja 29 minuuttia sitten, kello 01.04 UTC
Ennuste voimassa 17. päivästä klo 06 UTC - 18. päivään klo 06 UTC
Tuuli 8 kn koillisesta
Näkyvyys 10 km tai enemmän
Hajanaisia pilviä 2000 ft:n korkeudessa
Hajonneita pilviä 3300 ft:n korkeudessa

TAF: ZPPP 170104Z 1706/1806 04004MPS 9999 SCT020 BKN033 TX08/1708Z TN04/1723Z

Säähavainnot ja -ennusteet yli 4000 lentoasemalta (METAR- ja TAF-raportit).

Käytössä olevat sääasemat on merkitty karttaan keltaisilla ja punaisilla pisteillä.

Aseta hiiri pisteen päälle nähdäksesi sääaseman nimen.

Klikkaa sitten nähdäksesi säähavainnot ja -ennusteet.

Kartan vaihtaminen: klikkaa mustalla rastilla varustettuja vihreitä pisteitä, niin voit zoomata sisään; viivalla varustettua vihreää pistettä, niin voit zoomata ulos tai vihreitä nuolia, niin pääset viereisille kartoille.


METAR-TAF: